Grand Canyon National Park Airport
KGCN : now visible

Airfield :











YOU CAN JOIN US ON...

 
LOGIN :

Register | Disclaimer

   EN    FR    IT 

 









Legend :    VFR   Marginal VFR   IFR   Intensive IFR   Very Intensive IFR
Visi :
Ceiling :
>= 8 km
>= 3000ft
5 to 8 km
1000 to 3000 ft
1500m to 5 km
500 to 1000 ft
800 to 1500m
200 to 500 ft
< 800m
< 200 ft
Symbols :   Thunderstorms  Fog  Heavy snow  Heavy precipitations  Wind > 20 kt







- Airport Elevation : 6609 ft
- IATA code : GCN


KGCN - Grand Canyon National Park

CURRENT METAR :
  • 201454Z 21009KT 10SM CLR 12/M02 A3005 RMK AO2 SLP100 T01171017 51012

EXPIRED METARs :
  • 201354Z 20003KT 10SM CLR 04/M04 A3004 RMK AO2 SLP109 T00441039
  • 201254Z AUTO 00000KT 10SM CLR 03/M04 A3003 RMK AO2 SLP103 T00331044

TAF KGCN
Valid from the 20 at 12:00 until the 21 at 12:00 UTC


201137Z 2012/2112 23007KT P6SM SKC
FM201700 24012G25KT P6SM SKC
FM210300 VRB03KT P6SM SKC
No reported NOTAMs for that airfield.



MET'MAP, your aeronautical weather chart ! - Copyright ORBIFLY December 2007 - Disclaimer

ORBIFLY MET'MAP TEAM :

Programming & Development : Alexandra Zaïnal
Concept & Development : Baudouin d'Aumeries
Co-Development & Prog : Marc-Olivier Méhu
Technical & hardware support : Manuel Goepfert

Contact : metmap@orbifly.com




SOURCES & CREDITS :

   NOAA       Earth
Advisory